createdAt,value
2019-05-05T00:00:19.168Z,57.59
2019-05-05T00:02:19.127Z,57.59
2019-05-05T00:04:19.106Z,57.59
2019-05-05T00:06:19.141Z,57.38
2019-05-05T00:08:19.059Z,57.28
2019-05-05T00:10:19.043Z,57.38
2019-05-05T00:12:19.051Z,57.51
2019-05-05T00:14:18.998Z,57.38
2019-05-05T00:16:18.989Z,57.48
2019-05-05T00:18:18.968Z,57.90
2019-05-05T00:20:18.931Z,57.40
2019-05-05T00:22:18.926Z,57.71
2019-05-05T00:24:18.923Z,57.82
2019-05-05T00:26:18.880Z,57.53
2019-05-05T00:28:18.843Z,57.51
2019-05-05T00:30:18.851Z,57.51
2019-05-05T00:32:18.806Z,57.30
2019-05-05T00:34:18.793Z,57.71
2019-05-05T00:36:18.759Z,57.64
2019-05-05T00:38:18.736Z,57.61
2019-05-05T00:40:18.732Z,57.71
2019-05-05T00:42:18.691Z,57.61
2019-05-05T00:44:18.679Z,57.71
2019-05-05T00:46:18.692Z,57.85
2019-05-05T00:48:18.628Z,57.32
2019-05-05T00:50:18.614Z,57.64
2019-05-05T00:52:18.599Z,57.64
2019-05-05T00:54:18.580Z,57.53
2019-05-05T00:56:18.555Z,57.43
2019-05-05T00:58:18.522Z,57.85
2019-05-05T01:00:18.514Z,57.64
2019-05-05T01:02:18.481Z,57.64
2019-05-05T01:04:18.473Z,57.64
2019-05-05T01:06:18.449Z,57.43
2019-05-05T01:08:18.427Z,57.64
2019-05-05T01:10:18.388Z,57.85
2019-05-05T01:12:18.398Z,57.01
2019-05-05T01:14:18.366Z,56.91
2019-05-05T01:16:18.326Z,57.04
2019-05-05T01:18:18.318Z,57.35
2019-05-05T01:20:18.314Z,58.08
2019-05-05T01:22:18.255Z,57.87
2019-05-05T01:24:18.255Z,57.35
2019-05-05T01:26:18.219Z,57.46
2019-05-05T01:28:18.218Z,57.69
2019-05-05T01:30:18.202Z,57.90
2019-05-05T01:32:18.150Z,58.00
2019-05-05T01:34:18.130Z,57.69
2019-05-05T01:36:18.130Z,57.69
2019-05-05T01:38:18.092Z,57.59
2019-05-05T01:40:18.073Z,57.71
2019-05-05T01:42:18.080Z,57.71
2019-05-05T01:44:18.034Z,57.71
2019-05-05T01:46:18.017Z,57.71
2019-05-05T01:48:18.005Z,57.71
2019-05-05T01:50:21.224Z,57.71
2019-05-05T01:52:17.970Z,57.71
2019-05-05T01:54:17.925Z,57.71
2019-05-05T01:56:17.909Z,57.75
2019-05-05T01:58:17.896Z,57.75
2019-05-05T02:00:17.861Z,57.75
2019-05-05T02:02:17.862Z,57.54
2019-05-05T02:04:17.832Z,57.75
2019-05-05T02:06:17.806Z,57.85
2019-05-05T02:08:17.803Z,57.85
2019-05-05T02:10:17.760Z,57.95
2019-05-05T02:12:17.748Z,57.75
2019-05-05T02:14:17.746Z,57.64
2019-05-05T02:16:17.688Z,57.75
2019-05-05T02:18:17.675Z,57.77
2019-05-05T02:20:28.584Z,57.87
2019-05-05T02:22:18.667Z,57.77
2019-05-05T02:24:17.614Z,57.77
2019-05-05T02:26:17.597Z,57.46
2019-05-05T02:28:17.562Z,57.87
2019-05-05T02:30:17.578Z,57.67
2019-05-05T02:32:17.579Z,57.98
2019-05-05T02:34:17.501Z,57.98
2019-05-05T02:36:17.515Z,57.48
2019-05-05T02:38:17.474Z,57.77
2019-05-05T02:40:17.438Z,57.15
2019-05-05T02:42:17.462Z,56.41
2019-05-05T02:44:17.396Z,56.83
2019-05-05T02:46:17.403Z,57.04
2019-05-05T02:48:17.368Z,56.93
2019-05-05T02:50:17.331Z,56.93
2019-05-05T02:52:17.330Z,56.81
2019-05-05T02:54:17.289Z,56.62
2019-05-05T02:56:17.268Z,56.83
2019-05-05T02:58:17.261Z,56.73
2019-05-05T03:00:17.231Z,56.93
2019-05-05T03:02:17.211Z,57.04
2019-05-05T03:04:17.211Z,56.86
2019-05-05T03:06:17.165Z,57.35
2019-05-05T03:08:17.183Z,57.04
2019-05-05T03:10:17.143Z,57.04
2019-05-05T03:12:17.121Z,56.81
2019-05-05T03:14:17.088Z,57.04
2019-05-05T03:16:17.077Z,56.70
2019-05-05T03:18:17.038Z,56.18
2019-05-05T03:20:17.027Z,56.91
2019-05-05T03:22:17.015Z,56.73
2019-05-05T03:24:16.976Z,56.93
2019-05-05T03:26:16.954Z,56.93
2019-05-05T03:28:16.952Z,56.62
2019-05-05T03:30:16.913Z,56.83
2019-05-05T03:32:16.916Z,56.83
2019-05-05T03:34:16.897Z,56.93
2019-05-05T03:36:16.851Z,56.70
2019-05-05T03:38:16.837Z,57.22
2019-05-05T03:40:16.802Z,56.29
2019-05-05T03:42:16.805Z,56.39
2019-05-05T03:44:16.760Z,55.74
2019-05-05T03:46:16.742Z,56.13
2019-05-05T03:48:16.784Z,56.13
2019-05-05T03:50:16.706Z,55.19
2019-05-05T03:52:16.684Z,55.71
2019-05-05T03:54:16.676Z,55.61
2019-05-05T03:56:16.636Z,56.10
2019-05-05T03:58:16.614Z,55.58
2019-05-05T04:00:16.631Z,55.90
2019-05-05T04:02:16.578Z,55.35
2019-05-05T04:04:16.556Z,55.35
2019-05-05T04:06:16.545Z,55.24
2019-05-05T04:08:16.511Z,55.58
2019-05-05T04:10:16.495Z,55.66
2019-05-05T04:12:16.477Z,55.45
2019-05-05T04:14:18.431Z,55.58
2019-05-05T04:16:16.429Z,55.04
2019-05-05T04:18:16.414Z,55.35
2019-05-05T04:20:16.375Z,55.04
2019-05-05T04:22:16.367Z,55.04
2019-05-05T04:24:16.382Z,55.66
2019-05-05T04:26:16.314Z,55.87
2019-05-05T04:28:16.305Z,54.62
2019-05-05T04:30:16.279Z,54.49
2019-05-05T04:32:16.250Z,54.88
2019-05-05T04:34:16.241Z,54.24
2019-05-05T04:36:16.229Z,54.21
2019-05-05T04:38:16.190Z,53.36
2019-05-05T04:40:16.182Z,52.50
2019-05-05T04:42:16.138Z,53.10
2019-05-05T04:44:17.963Z,52.48
2019-05-05T04:46:16.092Z,53.41
2019-05-05T04:48:16.096Z,53.30
2019-05-05T04:50:18.280Z,53.82
2019-05-05T04:52:16.045Z,53.82
2019-05-05T04:54:16.015Z,53.82
2019-05-05T04:56:16.004Z,54.13
2019-05-05T04:58:15.983Z,53.59
2019-05-05T05:00:15.975Z,53.67
2019-05-05T05:02:15.924Z,52.82
2019-05-05T05:04:15.907Z,52.04
2019-05-05T05:06:15.904Z,51.28
2019-05-05T05:08:15.880Z,49.96
2019-05-05T05:10:15.838Z,49.05
2019-05-05T05:12:15.837Z,47.85
2019-05-05T05:14:15.814Z,46.14
2019-05-05T05:16:15.786Z,45.31
2019-05-05T05:18:15.775Z,44.64
2019-05-05T05:20:15.735Z,43.30
2019-05-05T05:22:15.747Z,40.05
2019-05-05T05:24:15.691Z,37.45
2019-05-05T05:26:15.668Z,36.04
2019-05-05T05:28:15.660Z,35.45
2019-05-05T05:30:15.628Z,34.76
2019-05-05T05:32:15.636Z,33.69
2019-05-05T05:34:15.585Z,33.43
2019-05-05T05:36:15.561Z,33.50
2019-05-05T05:38:15.552Z,33.89
2019-05-05T05:40:15.516Z,34.21
2019-05-05T05:42:15.496Z,38.55
2019-05-05T05:44:15.495Z,40.30
2019-05-05T05:46:15.457Z,40.23
2019-05-05T05:48:15.430Z,42.35
2019-05-05T05:50:15.424Z,43.52
2019-05-05T05:52:18.937Z,45.46
2019-05-05T05:54:15.370Z,46.15
2019-05-05T05:56:15.369Z,47.11
2019-05-05T05:58:15.358Z,48.11
2019-05-05T06:00:15.313Z,48.88
2019-05-05T06:02:15.681Z,49.00
2019-05-05T06:04:15.256Z,49.89
2019-05-05T06:06:15.245Z,50.22
2019-05-05T06:08:15.224Z,50.85
2019-05-05T06:10:22.227Z,49.52
2019-05-05T06:12:16.197Z,48.99
2019-05-05T06:14:15.159Z,48.00
2019-05-05T06:16:15.152Z,47.49
2019-05-05T06:18:15.131Z,46.83
2019-05-05T06:20:15.090Z,47.04
2019-05-05T06:22:27.875Z,47.69
2019-05-05T06:24:16.063Z,48.02
2019-05-05T06:26:15.389Z,47.60
2019-05-05T06:28:15.014Z,47.49
2019-05-05T06:30:14.997Z,48.13
2019-05-05T06:32:16.796Z,48.56
2019-05-05T06:34:16.006Z,49.40
2019-05-05T06:36:14.920Z,48.91
2019-05-05T06:38:15.120Z,50.06
2019-05-05T06:40:14.895Z,49.77
2019-05-05T06:42:14.852Z,50.64
2019-05-05T06:44:14.831Z,51.07
2019-05-05T06:46:14.822Z,51.02
2019-05-05T06:48:14.809Z,51.12
2019-05-05T06:50:14.850Z,51.33
2019-05-05T06:52:14.804Z,51.12
2019-05-05T06:54:14.763Z,50.28
2019-05-05T06:56:14.765Z,50.15
2019-05-05T06:58:14.699Z,49.85
2019-05-05T07:00:14.660Z,49.64
2019-05-05T07:02:14.714Z,50.13
2019-05-05T07:04:14.616Z,50.13
2019-05-05T07:06:14.799Z,50.13
2019-05-05T07:08:14.586Z,49.18
2019-05-05T07:10:14.553Z,48.85
2019-05-05T07:12:14.531Z,48.42
2019-05-05T07:14:14.536Z,48.60
2019-05-05T07:16:15.087Z,48.07
2019-05-05T07:18:14.466Z,48.46
2019-05-05T07:20:14.509Z,47.39
2019-05-05T07:22:17.529Z,47.19
2019-05-05T07:24:14.669Z,48.00
2019-05-05T07:26:14.673Z,47.34
2019-05-05T07:28:14.825Z,45.45
2019-05-05T07:30:14.348Z,45.73
2019-05-05T07:32:14.375Z,46.01
2019-05-05T07:34:14.291Z,45.10
2019-05-05T07:36:14.647Z,43.37
2019-05-05T07:38:14.254Z,42.11
2019-05-05T07:40:14.242Z,42.33
2019-05-05T07:42:14.230Z,42.09
2019-05-05T07:44:25.946Z,43.16
2019-05-05T07:46:15.183Z,44.44
2019-05-05T07:48:14.154Z,45.78
2019-05-05T07:50:26.448Z,45.58
2019-05-05T07:52:15.350Z,46.21
2019-05-05T07:54:14.649Z,45.76
2019-05-05T07:56:14.600Z,44.04
2019-05-05T07:58:14.081Z,44.60
2019-05-05T08:00:14.810Z,44.82
2019-05-05T08:02:14.631Z,43.95
2019-05-05T08:04:14.009Z,44.29
2019-05-05T08:06:14.670Z,43.83
2019-05-05T08:08:14.126Z,43.83
2019-05-05T08:10:13.921Z,44.12
2019-05-05T08:12:13.932Z,43.99
2019-05-05T08:14:14.615Z,44.06
2019-05-05T08:16:14.118Z,44.64
2019-05-05T08:18:13.977Z,43.18
2019-05-05T08:20:14.372Z,43.97
2019-05-05T08:22:23.050Z,43.89
2019-05-05T08:24:14.030Z,43.91
2019-05-05T08:26:13.832Z,42.03
2019-05-05T08:28:14.746Z,41.79
2019-05-05T08:30:14.157Z,42.92
2019-05-05T08:32:13.713Z,43.77
2019-05-05T08:34:14.259Z,43.59
2019-05-05T08:36:14.711Z,43.89
2019-05-05T08:38:13.889Z,43.80
2019-05-05T08:40:14.767Z,44.51
2019-05-05T08:42:14.398Z,43.46
2019-05-05T08:44:14.569Z,43.22
2019-05-05T08:46:14.338Z,43.38
2019-05-05T08:48:14.227Z,43.40
2019-05-05T08:50:13.784Z,44.37
2019-05-05T08:52:14.483Z,46.17
2019-05-05T08:54:14.355Z,47.88
2019-05-05T08:56:14.644Z,48.66
2019-05-05T08:58:14.871Z,49.03
2019-05-05T09:00:13.881Z,48.85
2019-05-05T09:02:15.007Z,49.20
2019-05-05T09:04:14.159Z,49.51
2019-05-05T09:06:13.885Z,49.61
2019-05-05T09:08:13.973Z,49.10
2019-05-05T09:10:14.236Z,48.57
2019-05-05T09:12:13.930Z,48.02
2019-05-05T09:14:14.927Z,47.89
2019-05-05T09:16:14.385Z,46.95
2019-05-05T09:18:14.099Z,45.79
2019-05-05T09:20:13.670Z,45.73
2019-05-05T09:22:13.946Z,44.58
2019-05-05T09:24:14.390Z,43.77
2019-05-05T09:26:13.807Z,43.16
2019-05-05T09:28:14.765Z,43.60
2019-05-05T09:30:14.235Z,45.26
2019-05-05T09:32:13.867Z,45.81
2019-05-05T09:34:14.645Z,46.64
2019-05-05T09:36:13.919Z,46.14
2019-05-05T09:38:14.671Z,45.83
2019-05-05T09:40:13.916Z,45.43
2019-05-05T09:42:14.471Z,45.73
2019-05-05T09:44:13.583Z,45.73
2019-05-05T09:46:14.333Z,45.73
2019-05-05T09:48:13.909Z,45.33
2019-05-05T09:50:14.338Z,47.38
2019-05-05T09:52:14.006Z,46.36
2019-05-05T09:54:16.666Z,46.48
2019-05-05T09:56:14.551Z,46.84
2019-05-05T09:58:13.711Z,44.64
2019-05-05T10:00:13.987Z,43.73
2019-05-05T10:02:12.684Z,42.84
2019-05-05T10:04:13.837Z,42.72
2019-05-05T10:06:14.256Z,42.92
2019-05-05T10:08:14.312Z,44.37
2019-05-05T10:10:13.823Z,44.65
2019-05-05T10:12:12.658Z,44.15
2019-05-05T10:14:14.312Z,45.37
2019-05-05T10:16:14.322Z,45.42
2019-05-05T10:18:14.122Z,44.27
2019-05-05T10:20:14.391Z,45.21
2019-05-05T10:22:14.611Z,46.47
2019-05-05T10:24:27.166Z,46.29
2019-05-05T10:26:14.935Z,45.24
2019-05-05T10:28:13.564Z,43.64
2019-05-05T10:30:14.200Z,44.45
2019-05-05T10:32:13.792Z,44.04
2019-05-05T10:34:13.630Z,43.72
2019-05-05T10:36:13.859Z,43.30
2019-05-05T10:38:14.085Z,42.96
2019-05-05T10:40:12.273Z,42.44
2019-05-05T10:42:14.313Z,42.96
2019-05-05T10:44:13.669Z,43.26
2019-05-05T10:46:14.213Z,42.69
2019-05-05T10:48:13.778Z,42.68
2019-05-05T10:50:13.913Z,41.75
2019-05-05T10:52:14.058Z,43.42
2019-05-05T10:54:14.148Z,44.12
2019-05-05T10:56:13.686Z,44.99
2019-05-05T10:58:13.780Z,45.73
2019-05-05T11:00:15.230Z,46.91
2019-05-05T11:02:14.061Z,46.34
2019-05-05T11:04:13.598Z,46.34
2019-05-05T11:06:13.693Z,46.57
2019-05-05T11:08:13.668Z,46.71
2019-05-05T11:10:14.047Z,46.57
2019-05-05T11:12:13.711Z,45.56
2019-05-05T11:14:14.010Z,43.88
2019-05-05T11:16:11.899Z,43.95
2019-05-05T11:18:14.425Z,42.92
2019-05-05T11:20:11.861Z,43.08
2019-05-05T11:22:11.822Z,42.86
2019-05-05T11:24:11.803Z,43.04
2019-05-05T11:26:14.152Z,41.67
2019-05-05T11:28:11.957Z,42.68
2019-05-05T11:30:14.323Z,43.36
2019-05-05T11:32:11.810Z,44.75
2019-05-05T11:34:13.861Z,46.34
2019-05-05T11:36:19.196Z,47.42
2019-05-05T11:38:11.647Z,48.30
2019-05-05T11:40:13.458Z,48.82
2019-05-05T11:42:11.623Z,48.34
2019-05-05T11:44:11.757Z,48.54
2019-05-05T11:46:11.566Z,47.83
2019-05-05T11:48:11.563Z,47.03
2019-05-05T11:50:11.607Z,47.28
2019-05-05T11:52:11.630Z,46.56
2019-05-05T11:54:11.485Z,46.94
2019-05-05T11:56:11.452Z,45.70
2019-05-05T11:58:11.425Z,45.16
2019-05-05T12:00:11.418Z,44.59
2019-05-05T12:02:11.386Z,44.47
2019-05-05T12:04:11.378Z,44.43
2019-05-05T12:06:11.341Z,43.30
2019-05-05T12:08:11.328Z,43.82
2019-05-05T12:10:11.322Z,45.23
2019-05-05T12:12:11.291Z,45.01
2019-05-05T12:14:11.255Z,43.46
2019-05-05T12:16:11.250Z,43.30
2019-05-05T12:18:11.236Z,41.74
2019-05-05T12:20:11.204Z,41.80
2019-05-05T12:22:11.175Z,41.80
2019-05-05T12:24:11.147Z,41.97
2019-05-05T12:26:11.142Z,41.67
2019-05-05T12:28:11.113Z,42.79
2019-05-05T12:30:11.100Z,42.27
2019-05-05T12:32:12.929Z,42.95
2019-05-05T12:34:11.034Z,42.33
2019-05-05T12:36:11.017Z,42.24
2019-05-05T12:38:11.015Z,43.59
2019-05-05T12:40:10.973Z,44.66
2019-05-05T12:42:10.960Z,45.84
2019-05-05T12:44:10.952Z,47.12
2019-05-05T12:46:10.912Z,48.11
2019-05-05T12:48:10.943Z,48.46
2019-05-05T12:50:10.866Z,48.30
2019-05-05T12:52:10.841Z,48.50
2019-05-05T12:54:10.841Z,48.43
2019-05-05T12:56:10.799Z,48.55
2019-05-05T12:58:10.792Z,48.85
2019-05-05T13:00:10.771Z,49.10
2019-05-05T13:02:10.734Z,49.84
2019-05-05T13:04:10.715Z,50.59
2019-05-05T13:06:10.755Z,50.63
2019-05-05T13:08:10.680Z,50.56
2019-05-05T13:10:10.660Z,50.18
2019-05-05T13:12:10.649Z,49.75
2019-05-05T13:14:10.602Z,49.24
2019-05-05T13:16:10.616Z,48.91
2019-05-05T13:18:10.602Z,48.39
2019-05-05T13:20:10.554Z,47.94
2019-05-05T13:22:10.541Z,46.36
2019-05-05T13:24:10.500Z,45.38
2019-05-05T13:26:10.497Z,45.14
2019-05-05T13:28:10.470Z,45.12
2019-05-05T13:30:10.459Z,45.12
2019-05-05T13:32:10.431Z,45.19
2019-05-05T13:34:10.400Z,44.47
2019-05-05T13:36:10.372Z,44.37
2019-05-05T13:38:10.359Z,44.24
2019-05-05T13:40:10.326Z,45.45
2019-05-05T13:42:10.311Z,45.35
2019-05-05T13:44:10.338Z,44.87
2019-05-05T13:46:10.276Z,45.27
2019-05-05T13:48:10.238Z,45.05
2019-05-05T13:50:10.233Z,43.80
2019-05-05T13:52:10.196Z,43.36
2019-05-05T13:54:10.216Z,43.54
2019-05-05T13:56:12.445Z,43.52
2019-05-05T13:58:10.129Z,44.34
2019-05-05T14:00:10.133Z,43.74
2019-05-05T14:02:10.121Z,44.96
2019-05-05T14:04:10.088Z,44.96
2019-05-05T14:06:10.058Z,45.17
2019-05-05T14:08:10.022Z,44.89
2019-05-05T14:10:10.012Z,46.36
2019-05-05T14:12:10.010Z,47.43
2019-05-05T14:14:09.955Z,48.50
2019-05-05T14:16:09.950Z,50.27
2019-05-05T14:18:09.924Z,49.81
2019-05-05T14:20:12.048Z,50.24
2019-05-05T14:22:09.886Z,50.46
2019-05-05T14:24:09.845Z,50.46
2019-05-05T14:26:22.877Z,49.53
2019-05-05T14:28:10.831Z,49.10
2019-05-05T14:30:09.785Z,48.60
2019-05-05T14:32:09.767Z,48.58
2019-05-05T14:34:09.754Z,48.05
2019-05-05T14:36:09.711Z,47.35
2019-05-05T14:38:09.693Z,46.38
2019-05-05T14:40:09.689Z,46.48
2019-05-05T14:42:09.664Z,46.66
2019-05-05T14:44:09.624Z,46.36
2019-05-05T14:46:09.621Z,45.31
2019-05-05T14:48:09.600Z,45.39
2019-05-05T14:50:09.580Z,47.14
2019-05-05T14:52:09.586Z,47.91
2019-05-05T14:54:10.771Z,47.96
2019-05-05T14:56:09.500Z,48.81
2019-05-05T14:58:09.501Z,47.98
2019-05-05T15:00:09.473Z,48.71
2019-05-05T15:02:09.432Z,48.63
2019-05-05T15:04:09.442Z,49.04
2019-05-05T15:06:09.405Z,48.96
2019-05-05T15:08:09.419Z,48.93
2019-05-05T15:10:09.358Z,49.16
2019-05-05T15:12:09.327Z,49.16
2019-05-05T15:14:09.319Z,49.16
2019-05-05T15:16:10.249Z,48.98
2019-05-05T15:18:09.291Z,49.81
2019-05-05T15:20:09.281Z,50.32
2019-05-05T15:22:09.232Z,50.54
2019-05-05T15:29:00.921Z,51.32
2019-05-05T15:30:55.444Z,51.25
2019-05-05T15:32:54.408Z,51.57
2019-05-05T15:34:54.728Z,51.55
2019-05-05T15:36:54.808Z,49.68
2019-05-05T15:38:55.214Z,50.41
2019-05-05T15:40:54.857Z,48.72
2019-05-05T15:42:54.537Z,47.67
2019-05-05T15:44:54.497Z,47.32
2019-05-05T15:46:57.765Z,46.79
2019-05-05T15:48:54.646Z,46.47
2019-05-05T15:50:54.619Z,47.64
2019-05-05T15:52:54.543Z,48.80
2019-05-05T15:54:54.174Z,48.82
2019-05-05T15:57:04.827Z,50.37
2019-05-05T15:58:55.127Z,49.43
2019-05-05T16:00:54.109Z,48.74
2019-05-05T16:02:54.862Z,49.05
2019-05-05T16:04:54.243Z,48.37
2019-05-05T16:06:54.279Z,47.34
2019-05-05T16:08:56.494Z,46.99
2019-05-05T16:10:54.630Z,46.87
2019-05-05T16:12:54.048Z,46.55
2019-05-05T16:14:53.993Z,46.65
2019-05-05T16:16:55.903Z,46.33
2019-05-05T16:19:05.261Z,46.30
2019-05-05T16:20:54.896Z,46.12
2019-05-05T16:22:54.222Z,46.53
2019-05-05T16:24:54.887Z,47.33
2019-05-05T16:26:55.602Z,47.15
2019-05-05T16:28:55.304Z,47.17
2019-05-05T16:30:56.202Z,48.18
2019-05-05T16:32:55.186Z,48.53
2019-05-05T16:34:54.953Z,49.08
2019-05-05T16:36:54.463Z,50.37
2019-05-05T16:38:53.802Z,50.71
2019-05-05T16:40:53.913Z,51.17
2019-05-05T16:42:54.285Z,52.44
2019-05-05T16:44:53.947Z,52.79
2019-05-05T16:46:54.049Z,52.91
2019-05-05T16:48:54.114Z,53.27
2019-05-05T16:50:54.158Z,54.11
2019-05-05T16:52:54.519Z,54.03
2019-05-05T16:54:55.793Z,53.75
2019-05-05T16:56:53.522Z,53.96
2019-05-05T16:58:53.499Z,53.96
2019-05-05T17:00:54.368Z,54.18
2019-05-05T17:02:53.767Z,53.98
2019-05-05T17:04:53.867Z,53.98
2019-05-05T17:06:54.691Z,53.90
2019-05-05T17:08:53.409Z,54.41
2019-05-05T17:10:53.351Z,54.31
2019-05-05T17:12:53.325Z,53.90
2019-05-05T17:14:54.137Z,54.61
2019-05-05T17:16:54.445Z,53.59
2019-05-05T17:18:54.126Z,53.90
2019-05-05T17:20:53.537Z,53.29
2019-05-05T17:22:54.614Z,53.50
2019-05-05T17:24:53.614Z,53.27
2019-05-05T17:26:54.853Z,53.47
2019-05-05T17:28:54.126Z,53.06
2019-05-05T17:30:54.336Z,53.06
2019-05-05T17:32:54.419Z,53.78
2019-05-05T17:34:54.109Z,53.06
2019-05-05T17:36:53.571Z,53.29
2019-05-05T17:38:54.369Z,52.98
2019-05-05T17:40:54.183Z,54.13
2019-05-05T17:42:53.593Z,53.72
2019-05-05T17:44:52.969Z,54.54
2019-05-05T17:46:53.830Z,53.85
2019-05-05T17:48:53.870Z,54.39
2019-05-05T17:50:53.624Z,54.18
2019-05-05T17:52:53.736Z,54.59
2019-05-05T17:54:53.907Z,54.39
2019-05-05T17:56:54.982Z,54.92
2019-05-05T17:58:53.809Z,54.92
2019-05-05T18:00:54.370Z,55.02
2019-05-05T18:02:53.445Z,55.23
2019-05-05T18:04:54.086Z,55.43
2019-05-05T18:06:53.677Z,55.13
2019-05-05T18:08:54.008Z,54.74
2019-05-05T18:10:54.518Z,55.15
2019-05-05T18:12:54.053Z,55.36
2019-05-05T18:14:53.671Z,54.95
2019-05-05T18:16:54.266Z,54.95
2019-05-05T18:18:54.752Z,55.18
2019-05-05T18:20:54.251Z,55.28
2019-05-05T18:22:53.611Z,55.28
2019-05-05T18:24:54.008Z,55.10
2019-05-05T18:26:53.706Z,55.71
2019-05-05T18:28:54.072Z,55.94
2019-05-05T18:30:53.945Z,55.84
2019-05-05T18:32:53.412Z,56.07
2019-05-05T18:34:54.505Z,55.66
2019-05-05T18:36:54.235Z,55.58
2019-05-05T18:38:53.856Z,56.00
2019-05-05T18:40:52.568Z,55.69
2019-05-05T18:42:54.266Z,55.79
2019-05-05T18:44:54.071Z,56.00
2019-05-05T18:46:54.302Z,55.79
2019-05-05T18:48:54.381Z,56.02
2019-05-05T18:50:54.098Z,56.02
2019-05-05T18:52:53.813Z,55.72
2019-05-05T18:54:54.220Z,55.41
2019-05-05T18:56:53.538Z,56.54
2019-05-05T18:58:54.090Z,56.87
2019-05-05T19:00:52.161Z,56.05
2019-05-05T19:02:53.615Z,56.87
2019-05-05T19:04:53.722Z,56.77
2019-05-05T19:06:52.104Z,56.87
2019-05-05T19:08:56.544Z,57.00
2019-05-05T19:10:54.196Z,56.49
2019-05-05T19:12:53.956Z,56.49
2019-05-05T19:14:52.001Z,56.59
2019-05-05T19:16:55.303Z,57.00
2019-05-05T19:18:53.958Z,56.82
2019-05-05T19:20:54.050Z,57.13
2019-05-05T19:22:54.207Z,57.03
2019-05-05T19:24:51.916Z,56.95
2019-05-05T19:26:55.742Z,57.15
2019-05-05T19:28:51.903Z,56.87
2019-05-05T19:30:51.893Z,57.18
2019-05-05T19:32:54.073Z,57.18
2019-05-05T19:34:54.214Z,57.41
2019-05-05T19:36:51.766Z,57.31
2019-05-05T19:38:51.743Z,57.10
2019-05-05T19:40:59.296Z,57.34
2019-05-05T19:42:53.427Z,57.44
2019-05-05T19:44:52.016Z,56.93
2019-05-05T19:46:51.836Z,57.23
2019-05-05T19:48:51.632Z,57.57
2019-05-05T19:50:51.637Z,57.57
2019-05-05T19:52:53.693Z,57.78
2019-05-05T19:54:51.572Z,57.90
2019-05-05T19:56:51.566Z,57.78
2019-05-05T19:58:59.125Z,57.70
2019-05-05T20:00:54.629Z,57.80
2019-05-05T20:03:03.965Z,57.80
2019-05-05T20:04:53.670Z,57.93
2019-05-05T20:06:51.463Z,57.93
2019-05-05T20:08:53.540Z,57.73
2019-05-05T20:10:51.397Z,57.82
2019-05-05T20:12:51.390Z,57.82
2019-05-05T20:14:51.355Z,57.82
2019-05-05T20:16:51.351Z,57.75
2019-05-05T20:18:51.327Z,57.65
2019-05-05T20:21:03.675Z,57.86
2019-05-05T20:22:52.284Z,57.54
2019-05-05T20:24:51.257Z,57.75
2019-05-05T20:26:51.223Z,57.88
2019-05-05T20:28:51.419Z,57.57
2019-05-05T20:30:51.234Z,57.98
2019-05-05T20:32:51.182Z,57.98
2019-05-05T20:34:51.358Z,58.01
2019-05-05T20:36:51.160Z,57.98
2019-05-05T20:38:51.093Z,58.01
2019-05-05T20:40:51.273Z,57.70
2019-05-05T20:42:51.070Z,58.11
2019-05-05T20:44:51.032Z,58.45
2019-05-05T20:46:53.432Z,58.11
2019-05-05T20:48:51.016Z,57.81
2019-05-05T20:50:50.962Z,58.32
2019-05-05T20:52:53.410Z,57.62
2019-05-05T20:54:50.946Z,58.14
2019-05-05T20:56:50.918Z,58.25
2019-05-05T20:58:51.073Z,58.76
2019-05-05T21:00:50.877Z,58.79
2019-05-05T21:02:50.851Z,58.69
2019-05-05T21:04:51.490Z,58.69
2019-05-05T21:06:50.791Z,58.69
2019-05-05T21:08:50.769Z,58.69
2019-05-05T21:10:50.800Z,58.81
2019-05-05T21:12:50.731Z,58.71
2019-05-05T21:14:50.707Z,58.81
2019-05-05T21:16:50.698Z,58.92
2019-05-05T21:18:50.669Z,59.02
2019-05-05T21:20:50.652Z,58.71
2019-05-05T21:22:50.637Z,58.81
2019-05-05T21:24:50.623Z,58.81
2019-05-05T21:26:50.576Z,58.50
2019-05-05T21:28:50.570Z,57.57
2019-05-05T21:30:50.547Z,57.99
2019-05-05T21:32:50.522Z,57.86
2019-05-05T21:34:50.492Z,58.06
2019-05-05T21:36:50.471Z,57.86
2019-05-05T21:38:50.462Z,57.96
2019-05-05T21:40:50.428Z,57.96
2019-05-05T21:42:50.415Z,57.76
2019-05-05T21:44:50.388Z,57.65
2019-05-05T21:46:50.383Z,57.76
2019-05-05T21:48:50.373Z,57.03
2019-05-05T21:50:50.320Z,57.34
2019-05-05T21:52:50.316Z,57.45
2019-05-05T21:54:50.286Z,57.34
2019-05-05T21:56:50.251Z,57.34
2019-05-05T21:58:50.383Z,57.34
2019-05-05T22:00:50.254Z,57.34
2019-05-05T22:02:50.196Z,57.06
2019-05-05T22:04:50.361Z,56.85
2019-05-05T22:06:50.172Z,57.17
2019-05-05T22:08:50.122Z,57.06
2019-05-05T22:10:50.137Z,56.96
2019-05-05T22:12:50.092Z,57.57
2019-05-05T22:14:50.099Z,57.37
2019-05-05T22:16:50.052Z,57.37
2019-05-05T22:18:50.014Z,57.34
2019-05-05T22:20:49.993Z,57.47
2019-05-05T22:22:49.987Z,57.78
2019-05-05T22:24:49.965Z,57.47
2019-05-05T22:26:49.976Z,57.26
2019-05-05T22:28:49.923Z,57.17
2019-05-05T22:30:49.884Z,57.37
2019-05-05T22:32:49.870Z,57.40
2019-05-05T22:34:49.857Z,57.50
2019-05-05T22:36:49.822Z,56.98
2019-05-05T22:38:49.815Z,57.21
2019-05-05T22:40:49.784Z,57.73
2019-05-05T22:42:49.777Z,57.73
2019-05-05T22:44:50.237Z,57.73
2019-05-05T22:46:50.614Z,57.86
2019-05-05T22:48:50.102Z,57.86
2019-05-05T22:50:49.690Z,58.07
2019-05-05T22:52:49.845Z,58.17
2019-05-05T22:54:49.626Z,58.07
2019-05-05T22:56:49.604Z,57.99
2019-05-05T22:58:49.624Z,57.89
2019-05-05T23:00:49.561Z,58.20
2019-05-05T23:02:49.569Z,58.02
2019-05-05T23:04:49.790Z,59.16
2019-05-05T23:06:49.502Z,58.74
2019-05-05T23:08:49.495Z,58.98
2019-05-05T23:10:49.471Z,59.19
2019-05-05T23:12:49.436Z,59.19
2019-05-05T23:14:49.427Z,58.87
2019-05-05T23:16:49.642Z,58.90
2019-05-05T23:18:49.404Z,59.00
2019-05-05T23:20:49.353Z,59.21
2019-05-05T23:22:49.970Z,59.24
2019-05-05T23:24:49.308Z,59.03
2019-05-05T23:26:49.301Z,58.72
2019-05-05T23:28:49.282Z,58.72
2019-05-05T23:30:49.247Z,58.83
2019-05-05T23:32:49.238Z,58.72
2019-05-05T23:34:49.376Z,59.24
2019-05-05T23:36:49.194Z,59.47
2019-05-05T23:38:49.155Z,58.75
2019-05-05T23:40:49.149Z,58.75
2019-05-05T23:42:49.128Z,59.61
2019-05-05T23:44:49.095Z,59.58
2019-05-05T23:46:49.251Z,59.40
2019-05-05T23:48:49.052Z,59.30
2019-05-05T23:50:49.027Z,59.30
2019-05-05T23:52:56.579Z,59.09
2019-05-05T23:54:49.034Z,59.09
2019-05-05T23:56:49.039Z,59.09
2019-05-05T23:58:48.968Z,59.32
